createdAt,value
2023-03-10T00:00:49.116Z,10.48
2023-03-10T00:03:16.034Z,10.46
2023-03-10T00:05:43.185Z,10.42
2023-03-10T00:08:10.120Z,10.41
2023-03-10T00:10:38.153Z,10.39
2023-03-10T00:13:05.090Z,10.36
2023-03-10T00:15:32.021Z,10.34
2023-03-10T00:17:58.955Z,10.32
2023-03-10T00:20:26.414Z,10.31
2023-03-10T00:22:53.326Z,10.29
2023-03-10T00:25:20.235Z,10.28
2023-03-10T00:27:47.155Z,10.27
2023-03-10T00:30:15.021Z,10.25
2023-03-10T00:32:41.987Z,10.23
2023-03-10T00:35:09.224Z,10.24
2023-03-10T00:37:38.553Z,10.24
2023-03-10T00:40:12.344Z,10.22
2023-03-10T00:42:39.419Z,10.22
2023-03-10T00:45:07.221Z,10.21
2023-03-10T00:47:34.220Z,10.19
2023-03-10T00:50:01.513Z,10.19
2023-03-10T00:52:33.287Z,10.18
2023-03-10T00:55:00.224Z,10.18
2023-03-10T00:57:27.231Z,10.15
2023-03-10T00:59:54.307Z,10.14
2023-03-10T01:02:21.649Z,10.12
2023-03-10T01:04:48.985Z,10.10
2023-03-10T01:07:15.977Z,10.06
2023-03-10T01:09:43.218Z,10.02
2023-03-10T01:12:10.249Z,9.98
2023-03-10T01:14:38.257Z,9.93
2023-03-10T01:17:05.409Z,9.88
2023-03-10T01:19:32.617Z,9.83
2023-03-10T01:22:01.479Z,9.78
2023-03-10T01:24:28.431Z,9.73
2023-03-10T01:26:55.393Z,9.71
2023-03-10T01:29:22.469Z,9.67
2023-03-10T01:31:49.419Z,9.65
2023-03-10T01:34:16.426Z,9.64
2023-03-10T01:36:43.395Z,9.63
2023-03-10T01:39:10.392Z,9.60
2023-03-10T01:41:40.441Z,9.59
2023-03-10T01:44:18.539Z,9.55
2023-03-10T01:46:50.227Z,9.53
2023-03-10T01:49:26.388Z,9.52
2023-03-10T01:52:05.128Z,9.50
2023-03-10T01:54:53.775Z,9.47
2023-03-10T01:57:29.932Z,9.45
2023-03-10T01:59:58.484Z,9.46
2023-03-10T02:02:26.987Z,9.45
2023-03-10T02:04:55.636Z,9.44
2023-03-10T02:07:28.830Z,9.41
2023-03-10T02:09:56.729Z,9.42
2023-03-10T02:12:24.057Z,9.40
2023-03-10T02:14:52.548Z,9.38
2023-03-10T02:17:23.107Z,9.37
2023-03-10T02:19:59.528Z,9.34
2023-03-10T02:22:27.195Z,9.36
2023-03-10T02:25:37.282Z,9.34
2023-03-10T02:28:05.079Z,9.33
2023-03-10T02:30:41.396Z,9.31
2023-03-10T02:33:18.381Z,9.32
2023-03-10T02:35:46.025Z,9.33
2023-03-10T02:38:16.824Z,9.32
2023-03-10T02:40:50.745Z,9.28
2023-03-10T02:43:30.381Z,9.26
2023-03-10T02:46:06.964Z,9.27
2023-03-10T02:48:39.541Z,9.27
2023-03-10T02:51:31.071Z,9.26
2023-03-10T02:54:02.069Z,9.27
2023-03-10T02:56:30.970Z,9.26
2023-03-10T02:58:59.615Z,9.27
2023-03-10T03:01:27.243Z,9.26
2023-03-10T03:03:56.091Z,9.26
2023-03-10T03:06:23.405Z,9.25
2023-03-10T03:08:50.643Z,9.26
2023-03-10T03:11:20.033Z,9.26
2023-03-10T03:13:47.586Z,9.26
2023-03-10T03:16:15.300Z,9.28
2023-03-10T03:18:44.314Z,9.28
2023-03-10T03:21:18.231Z,9.27
2023-03-10T03:23:48.007Z,9.28
2023-03-10T03:26:26.821Z,9.27
2023-03-10T03:29:00.276Z,9.29
2023-03-10T03:31:30.976Z,9.27
2023-03-10T03:34:06.374Z,9.30
2023-03-10T03:36:33.912Z,9.30
2023-03-10T03:39:00.965Z,9.30
2023-03-10T03:41:30.900Z,9.31
2023-03-10T03:43:57.966Z,9.33
2023-03-10T03:46:25.209Z,9.33
2023-03-10T03:48:52.218Z,9.33
2023-03-10T03:51:19.907Z,9.33
2023-03-10T03:53:47.213Z,9.34
2023-03-10T03:56:14.464Z,9.35
2023-03-10T03:58:44.285Z,9.35
2023-03-10T04:01:12.745Z,9.36
2023-03-10T04:03:44.497Z,9.35
2023-03-10T04:06:14.963Z,9.37
2023-03-10T04:08:42.050Z,9.37
2023-03-10T04:11:09.628Z,9.37
2023-03-10T04:13:41.350Z,9.37
2023-03-10T04:16:08.644Z,9.37
2023-03-10T04:18:37.915Z,9.38
2023-03-10T04:21:05.638Z,9.38
2023-03-10T04:23:34.028Z,9.38
2023-03-10T04:26:01.135Z,9.38
2023-03-10T04:28:30.293Z,9.38
2023-03-10T04:30:57.578Z,9.37
2023-03-10T04:33:27.793Z,9.37
2023-03-10T04:35:54.803Z,9.36
2023-03-10T04:38:23.677Z,9.35
2023-03-10T04:40:56.491Z,9.32
2023-03-10T04:43:27.461Z,9.33
2023-03-10T04:45:55.372Z,9.30
2023-03-10T04:48:24.324Z,9.29
2023-03-10T04:51:04.324Z,9.26
2023-03-10T04:53:36.385Z,9.27
2023-03-10T04:56:07.808Z,9.24
2023-03-10T04:58:36.943Z,9.24
2023-03-10T05:01:13.116Z,9.21
2023-03-10T05:03:45.286Z,9.23
2023-03-10T05:06:22.012Z,9.21
2023-03-10T05:09:04.012Z,9.22
2023-03-10T05:11:32.619Z,9.21
2023-03-10T05:13:59.916Z,9.21
2023-03-10T05:16:27.027Z,9.22
2023-03-10T05:18:54.207Z,9.20
2023-03-10T05:21:25.330Z,9.20
2023-03-10T05:23:54.626Z,9.19
2023-03-10T05:26:23.237Z,9.20
2023-03-10T05:28:50.210Z,9.17
2023-03-10T05:31:26.512Z,9.17
2023-03-10T05:33:58.949Z,9.14
2023-03-10T05:36:26.352Z,9.13
2023-03-10T05:38:53.378Z,9.11
2023-03-10T05:41:20.450Z,9.11
2023-03-10T05:43:50.528Z,9.08
2023-03-10T05:46:18.688Z,9.07
2023-03-10T05:48:51.215Z,9.06
2023-03-10T05:51:18.687Z,9.03
2023-03-10T05:53:46.945Z,9.01
2023-03-10T05:56:20.786Z,9.00
2023-03-10T05:58:51.795Z,9.00
2023-03-10T06:01:22.095Z,9.00
2023-03-10T06:03:49.031Z,9.00
2023-03-10T06:06:16.063Z,9.00
2023-03-10T06:08:43.375Z,8.98
2023-03-10T06:11:10.422Z,9.01
2023-03-10T06:13:37.767Z,9.01
2023-03-10T06:16:06.870Z,9.01
2023-03-10T06:18:34.964Z,9.03
2023-03-10T06:21:09.901Z,9.02
2023-03-10T06:23:37.677Z,9.07
2023-03-10T06:26:09.372Z,9.08
2023-03-10T06:28:40.062Z,9.11
2023-03-10T06:31:13.357Z,9.12
2023-03-10T06:33:40.516Z,9.13
2023-03-10T06:36:10.675Z,9.16
2023-03-10T06:38:38.244Z,9.17
2023-03-10T06:41:06.094Z,9.18
2023-03-10T06:43:34.241Z,9.20
2023-03-10T06:46:08.816Z,9.20
2023-03-10T06:48:37.429Z,9.22
2023-03-10T06:51:16.437Z,9.21
2023-03-10T06:53:43.531Z,9.24
2023-03-10T06:56:18.229Z,9.24
2023-03-10T06:58:45.969Z,9.26
2023-03-10T07:01:29.378Z,9.27
2023-03-10T07:03:57.660Z,9.32
2023-03-10T07:06:25.593Z,9.35
2023-03-10T07:08:54.206Z,9.36
2023-03-10T07:11:22.767Z,9.38
2023-03-10T07:13:49.757Z,9.41
2023-03-10T07:16:17.759Z,9.45
2023-03-10T07:18:45.344Z,9.49
2023-03-10T07:21:16.511Z,9.52
2023-03-10T07:23:43.882Z,9.57
2023-03-10T07:26:13.211Z,9.62
2023-03-10T07:28:40.458Z,9.69
2023-03-10T07:31:11.728Z,9.75
2023-03-10T07:33:39.462Z,9.82
2023-03-10T07:36:13.190Z,9.88
2023-03-10T07:38:41.167Z,9.91
2023-03-10T07:41:15.724Z,9.93
2023-03-10T07:43:43.117Z,9.99
2023-03-10T07:46:13.419Z,10.03
2023-03-10T07:48:40.515Z,10.07
2023-03-10T07:51:07.959Z,10.10
2023-03-10T07:53:34.994Z,10.11
2023-03-10T07:56:10.904Z,10.09
2023-03-10T07:58:38.652Z,10.12
2023-03-10T08:01:06.972Z,10.09
2023-03-10T08:03:34.646Z,10.05
2023-03-10T08:06:02.499Z,10.00
2023-03-10T08:08:29.529Z,9.93
2023-03-10T08:11:09.546Z,9.88
2023-03-10T08:13:37.151Z,9.83
2023-03-10T08:16:04.835Z,9.76
2023-03-10T08:18:32.773Z,9.68
2023-03-10T08:21:03.340Z,9.64
2023-03-10T08:23:30.268Z,9.58
2023-03-10T08:26:05.608Z,9.52
2023-03-10T08:28:35.146Z,9.45
2023-03-10T08:31:13.286Z,9.42
2023-03-10T08:33:40.993Z,9.40
2023-03-10T08:36:18.440Z,9.35
2023-03-10T08:38:45.679Z,9.34
2023-03-10T08:41:24.214Z,9.30
2023-03-10T08:43:53.873Z,9.30
2023-03-10T08:46:24.544Z,9.30
2023-03-10T08:48:51.741Z,9.28
2023-03-10T08:51:19.586Z,9.26
2023-03-10T08:53:48.941Z,9.25
2023-03-10T08:56:19.129Z,9.24
2023-03-10T08:58:46.543Z,9.26
2023-03-10T09:01:15.699Z,9.25
2023-03-10T09:03:45.341Z,9.24
2023-03-10T09:06:13.736Z,9.26
2023-03-10T09:08:41.448Z,9.30
2023-03-10T09:11:10.462Z,9.31
2023-03-10T09:13:38.274Z,9.34
2023-03-10T09:16:05.576Z,9.34
2023-03-10T09:18:32.529Z,9.38
2023-03-10T09:20:59.451Z,9.42
2023-03-10T09:23:26.357Z,9.46
2023-03-10T09:25:53.394Z,9.51
2023-03-10T09:28:20.384Z,9.54
2023-03-10T09:30:48.170Z,9.59
2023-03-10T09:33:19.462Z,9.63
2023-03-10T09:36:05.052Z,9.69
2023-03-10T09:38:32.693Z,9.73
2023-03-10T09:41:51.627Z,9.77
2023-03-10T09:44:31.974Z,9.85
2023-03-10T09:47:10.098Z,9.92
2023-03-10T09:49:44.223Z,9.97
2023-03-10T09:52:44.060Z,9.99
2023-03-10T09:55:21.759Z,10.01
2023-03-10T09:57:53.086Z,10.02
2023-03-10T10:00:52.336Z,10.01
2023-03-10T10:03:52.542Z,10.00
2023-03-10T10:06:28.913Z,9.99
2023-03-10T10:09:32.744Z,9.94
2023-03-10T10:12:15.023Z,9.91
2023-03-10T10:14:48.038Z,9.89
2023-03-10T10:18:08.651Z,9.85
2023-03-10T10:21:00.244Z,9.81
2023-03-10T10:23:40.319Z,9.80
2023-03-10T10:26:20.774Z,9.77
2023-03-10T10:29:18.565Z,9.75
2023-03-10T10:32:13.653Z,9.77
2023-03-10T10:34:44.233Z,9.80
2023-03-10T10:37:38.765Z,9.83
2023-03-10T10:40:24.460Z,9.87
2023-03-10T10:43:00.701Z,9.88
2023-03-10T10:45:36.771Z,9.89
2023-03-10T10:48:04.991Z,9.89
2023-03-10T10:50:34.814Z,9.92
2023-03-10T10:53:21.617Z,9.94
2023-03-10T10:56:04.605Z,10.00
2023-03-10T10:58:35.923Z,10.05
2023-03-10T11:01:07.129Z,10.06
2023-03-10T11:03:37.639Z,10.07
2023-03-10T11:06:20.454Z,10.08
2023-03-10T11:08:51.254Z,10.11
2023-03-10T11:11:51.055Z,10.08
2023-03-10T11:15:18.019Z,10.06
2023-03-10T11:18:15.344Z,10.04
2023-03-10T11:21:07.025Z,10.01
2023-03-10T11:24:00.842Z,10.00
2023-03-10T11:26:49.249Z,9.99
2023-03-10T11:29:42.576Z,9.99
2023-03-10T11:32:57.474Z,9.98
2023-03-10T11:35:36.575Z,9.97
2023-03-10T11:38:39.525Z,9.99
2023-03-10T11:41:11.428Z,9.99
2023-03-10T11:43:53.922Z,9.97
2023-03-10T11:46:58.518Z,9.97
2023-03-10T11:49:35.586Z,9.95
2023-03-10T11:52:17.097Z,9.93
2023-03-10T11:54:51.093Z,9.93
2023-03-10T11:57:22.185Z,9.91
2023-03-10T12:00:04.350Z,9.88
2023-03-10T12:02:44.328Z,9.88
2023-03-10T12:05:20.980Z,9.84
2023-03-10T12:07:53.351Z,9.81
2023-03-10T12:10:22.917Z,9.79
2023-03-10T12:12:53.607Z,9.74
2023-03-10T12:15:36.729Z,9.69
2023-03-10T12:18:06.153Z,9.69
2023-03-10T12:20:35.354Z,9.65
2023-03-10T12:23:11.327Z,9.63
2023-03-10T12:25:38.570Z,9.64
2023-03-10T12:28:17.638Z,9.63
2023-03-10T12:30:46.326Z,9.67
2023-03-10T12:33:52.362Z,9.64
2023-03-10T12:36:36.868Z,9.64
2023-03-10T12:39:28.578Z,9.62
2023-03-10T12:41:58.333Z,9.62
2023-03-10T12:44:55.909Z,9.61
2023-03-10T12:47:47.098Z,9.59
2023-03-10T12:50:36.270Z,9.59
2023-03-10T12:53:11.482Z,9.53
2023-03-10T12:55:41.778Z,9.52
2023-03-10T12:58:27.178Z,9.48
2023-03-10T13:01:05.463Z,9.46
2023-03-10T13:03:48.646Z,9.43
2023-03-10T13:06:35.378Z,9.36
2023-03-10T13:09:21.031Z,9.33
2023-03-10T13:12:03.730Z,9.29
2023-03-10T13:14:40.871Z,9.25
2023-03-10T13:17:23.384Z,9.21
2023-03-10T13:20:24.649Z,9.19
2023-03-10T13:22:55.748Z,9.19
2023-03-10T13:25:23.010Z,9.17
2023-03-10T13:27:50.240Z,9.12
2023-03-10T13:30:27.078Z,9.11
2023-03-10T13:33:01.292Z,9.09
2023-03-10T13:35:37.504Z,9.05
2023-03-10T13:38:16.666Z,8.99
2023-03-10T13:41:05.008Z,8.94
2023-03-10T13:43:37.472Z,8.87
2023-03-10T13:46:18.859Z,8.82
2023-03-10T13:48:49.768Z,8.79
2023-03-10T13:51:32.228Z,8.75
2023-03-10T13:54:31.904Z,8.71
2023-03-10T13:57:51.252Z,8.70
2023-03-10T14:00:24.931Z,8.70
2023-03-10T14:02:53.795Z,8.71
2023-03-10T14:05:45.812Z,8.70
2023-03-10T14:08:33.711Z,8.74
2023-03-10T14:11:34.332Z,8.77
2023-03-10T14:14:04.849Z,8.77
2023-03-10T14:16:49.735Z,8.79
2023-03-10T14:19:55.918Z,8.81
2023-03-10T14:22:43.435Z,8.87
2023-03-10T14:25:19.834Z,8.88
2023-03-10T14:28:12.530Z,8.88
2023-03-10T14:30:44.050Z,8.89
2023-03-10T14:33:15.831Z,8.89
2023-03-10T14:35:43.955Z,8.90
2023-03-10T14:38:10.929Z,8.89
2023-03-10T14:40:51.672Z,8.89
2023-03-10T14:43:25.600Z,8.86
2023-03-10T14:45:56.253Z,8.86
2023-03-10T14:48:28.243Z,8.82
2023-03-10T14:50:56.915Z,8.80
2023-03-10T14:53:25.965Z,8.77
2023-03-10T14:56:00.265Z,8.75
2023-03-10T14:58:47.497Z,8.71
2023-03-10T15:01:17.544Z,8.67
2023-03-10T15:03:45.413Z,8.63
2023-03-10T15:06:14.552Z,8.58
2023-03-10T15:08:41.488Z,8.56
2023-03-10T15:11:09.268Z,8.54
2023-03-10T15:13:38.141Z,8.53
2023-03-10T15:16:06.616Z,8.50
2023-03-10T15:18:33.795Z,8.46
2023-03-10T15:21:02.327Z,8.44
2023-03-10T15:23:30.226Z,8.40
2023-03-10T15:25:58.382Z,8.37
2023-03-10T15:28:25.514Z,8.34
2023-03-10T15:30:54.656Z,8.31
2023-03-10T15:33:21.665Z,8.26
2023-03-10T15:35:48.691Z,8.21
2023-03-10T15:38:15.863Z,8.18
2023-03-10T15:40:43.115Z,8.12
2023-03-10T15:43:10.317Z,8.08
2023-03-10T15:45:42.463Z,8.04
2023-03-10T15:48:10.678Z,8.01
2023-03-10T15:50:41.712Z,7.97
2023-03-10T15:53:08.785Z,7.92
2023-03-10T15:55:42.158Z,7.89
2023-03-10T15:58:10.928Z,7.85
2023-03-10T16:00:38.586Z,7.83
2023-03-10T16:03:05.549Z,7.82
2023-03-10T16:05:32.520Z,7.81
2023-03-10T16:07:59.460Z,7.79
2023-03-10T16:10:26.552Z,7.77
2023-03-10T16:12:53.486Z,7.75
2023-03-10T16:15:20.497Z,7.71
2023-03-10T16:17:47.434Z,7.69
2023-03-10T16:20:16.772Z,7.68
2023-03-10T16:22:43.822Z,7.66
2023-03-10T16:25:16.855Z,7.64
2023-03-10T16:27:45.914Z,7.65
2023-03-10T16:30:16.291Z,7.64
2023-03-10T16:32:50.799Z,7.64
2023-03-10T16:35:18.269Z,7.64
2023-03-10T16:37:45.225Z,7.67
2023-03-10T16:40:12.697Z,7.67
2023-03-10T16:42:43.152Z,7.68
2023-03-10T16:45:10.690Z,7.68
2023-03-10T16:47:37.613Z,7.69
2023-03-10T16:50:04.976Z,7.68
2023-03-10T16:52:31.945Z,7.67
2023-03-10T16:55:01.296Z,7.67
2023-03-10T16:57:28.286Z,7.66
2023-03-10T16:59:55.359Z,7.67
2023-03-10T17:02:22.292Z,7.65
2023-03-10T17:04:49.234Z,7.62
2023-03-10T17:07:16.278Z,7.61
2023-03-10T17:09:43.210Z,7.57
2023-03-10T17:12:10.152Z,7.56
2023-03-10T17:14:37.085Z,7.53
2023-03-10T17:17:06.565Z,7.51
2023-03-10T17:19:34.729Z,7.50
2023-03-10T17:22:01.684Z,7.47
2023-03-10T17:24:29.036Z,7.43
2023-03-10T17:26:55.970Z,7.41
2023-03-10T17:29:22.897Z,7.37
2023-03-10T17:31:51.344Z,7.35
2023-03-10T17:34:19.589Z,7.31
2023-03-10T17:36:50.238Z,7.28
2023-03-10T17:39:22.772Z,7.22
2023-03-10T17:41:49.897Z,7.19
2023-03-10T17:44:17.325Z,7.17
2023-03-10T17:46:45.343Z,7.13
2023-03-10T17:49:13.890Z,7.12
2023-03-10T17:51:44.049Z,7.08
2023-03-10T17:54:20.823Z,7.03
2023-03-10T17:56:49.140Z,6.98
2023-03-10T17:59:16.820Z,6.92
2023-03-10T18:01:45.495Z,6.82
2023-03-10T18:04:13.295Z,6.75
2023-03-10T18:06:40.578Z,6.70
2023-03-10T18:09:13.222Z,6.62
2023-03-10T18:11:40.536Z,6.57
2023-03-10T18:14:07.772Z,6.51
2023-03-10T18:16:40.080Z,6.47
2023-03-10T18:19:10.532Z,6.43
2023-03-10T18:21:38.652Z,6.40
2023-03-10T18:24:06.482Z,6.36
2023-03-10T18:26:33.731Z,6.33
2023-03-10T18:29:01.579Z,6.31
2023-03-10T18:31:32.688Z,6.29
2023-03-10T18:34:00.582Z,6.25
2023-03-10T18:36:28.675Z,6.24
2023-03-10T18:38:56.723Z,6.23
2023-03-10T18:41:29.387Z,6.22
2023-03-10T18:43:56.364Z,6.24
2023-03-10T18:46:23.411Z,6.21
2023-03-10T18:48:55.759Z,6.21
2023-03-10T18:51:28.522Z,6.19
2023-03-10T18:53:55.901Z,6.18
2023-03-10T18:56:25.535Z,6.17
2023-03-10T18:58:52.552Z,6.16
2023-03-10T19:01:19.524Z,6.13
2023-03-10T19:03:46.473Z,6.13
2023-03-10T19:06:13.385Z,6.09
2023-03-10T19:08:41.500Z,6.08
2023-03-10T19:11:08.582Z,6.07
2023-03-10T19:13:40.210Z,6.05
2023-03-10T19:16:09.022Z,6.03
2023-03-10T19:18:36.689Z,6.03
2023-03-10T19:21:04.804Z,5.99
2023-03-10T19:23:33.966Z,5.95
2023-03-10T19:26:01.654Z,5.90
2023-03-10T19:28:28.843Z,5.87
2023-03-10T19:30:55.952Z,5.86
2023-03-10T19:33:23.426Z,5.79
2023-03-10T19:35:51.293Z,5.70
2023-03-10T19:38:18.396Z,5.63
2023-03-10T19:40:46.887Z,5.52
2023-03-10T19:43:13.895Z,5.43
2023-03-10T19:45:40.793Z,5.37
2023-03-10T19:48:07.719Z,5.27
2023-03-10T19:50:34.690Z,5.18
2023-03-10T19:53:01.606Z,5.11
2023-03-10T19:55:29.503Z,5.04
2023-03-10T19:57:56.514Z,5.00
2023-03-10T20:00:30.720Z,4.90
2023-03-10T20:02:58.532Z,4.84
2023-03-10T20:05:26.761Z,4.78
2023-03-10T20:07:53.951Z,4.73
2023-03-10T20:10:20.904Z,4.66
2023-03-10T20:12:48.038Z,4.62
2023-03-10T20:15:15.512Z,4.59
2023-03-10T20:17:42.776Z,4.57
2023-03-10T20:20:11.266Z,4.54
2023-03-10T20:22:49.473Z,4.51
2023-03-10T20:25:20.292Z,4.48
2023-03-10T20:27:49.746Z,4.43
2023-03-10T20:30:23.831Z,4.41
2023-03-10T20:32:51.452Z,4.38
2023-03-10T20:35:19.021Z,4.35
2023-03-10T20:37:46.119Z,4.34
2023-03-10T20:40:22.895Z,4.31
2023-03-10T20:42:56.113Z,4.28
2023-03-10T20:45:23.587Z,4.24
2023-03-10T20:47:50.707Z,4.23
2023-03-10T20:50:18.099Z,4.19
2023-03-10T20:52:45.555Z,4.17
2023-03-10T20:55:29.483Z,4.16
2023-03-10T20:57:59.799Z,4.15
2023-03-10T21:00:29.877Z,4.14
2023-03-10T21:02:57.887Z,4.13
2023-03-10T21:05:27.613Z,4.10
2023-03-10T21:07:55.278Z,4.08
2023-03-10T21:10:23.262Z,4.07
2023-03-10T21:12:50.736Z,4.05
2023-03-10T21:15:19.291Z,4.04
2023-03-10T21:17:46.712Z,3.98
2023-03-10T21:20:19.895Z,3.95
2023-03-10T21:22:47.146Z,3.95
2023-03-10T21:25:21.381Z,3.93
2023-03-10T21:27:51.200Z,3.92
2023-03-10T21:30:20.369Z,3.92
2023-03-10T21:32:47.745Z,3.91
2023-03-10T21:35:14.896Z,3.89
2023-03-10T21:37:46.675Z,3.87
2023-03-10T21:40:17.914Z,3.85
2023-03-10T21:42:45.567Z,3.84
2023-03-10T21:45:16.675Z,3.83
2023-03-10T21:47:44.174Z,3.79
2023-03-10T21:50:13.148Z,3.79
2023-03-10T21:52:41.421Z,3.79
2023-03-10T21:55:17.636Z,3.77
2023-03-10T21:57:44.803Z,3.77
2023-03-10T22:00:13.582Z,3.75
2023-03-10T22:02:40.646Z,3.75
2023-03-10T22:05:08.461Z,3.75
2023-03-10T22:07:35.404Z,3.74
2023-03-10T22:10:02.464Z,3.74
2023-03-10T22:12:29.380Z,3.71
2023-03-10T22:14:57.715Z,3.71
2023-03-10T22:17:26.277Z,3.72
2023-03-10T22:19:56.411Z,3.70
2023-03-10T22:22:23.496Z,3.70
2023-03-10T22:24:50.793Z,3.69
2023-03-10T22:27:17.725Z,3.66
2023-03-10T22:29:45.808Z,3.64
2023-03-10T22:32:12.873Z,3.62
2023-03-10T22:34:39.888Z,3.60
2023-03-10T22:37:06.837Z,3.59
2023-03-10T22:39:33.829Z,3.57
2023-03-10T22:42:00.789Z,3.54
2023-03-10T22:44:27.811Z,3.53
2023-03-10T22:46:54.945Z,3.52
2023-03-10T22:49:21.916Z,3.49
2023-03-10T22:51:48.864Z,3.47
2023-03-10T22:54:15.782Z,3.44
2023-03-10T22:56:42.712Z,3.42
2023-03-10T22:59:09.607Z,3.41
2023-03-10T23:01:36.685Z,3.37
2023-03-10T23:04:03.718Z,3.35
2023-03-10T23:06:31.804Z,3.33
2023-03-10T23:08:59.200Z,3.32
2023-03-10T23:11:26.293Z,3.29
2023-03-10T23:13:53.341Z,3.27
2023-03-10T23:16:20.306Z,3.26
2023-03-10T23:18:47.503Z,3.24
2023-03-10T23:21:15.163Z,3.20
2023-03-10T23:23:43.688Z,3.17
2023-03-10T23:26:11.676Z,3.15
2023-03-10T23:28:39.105Z,3.13
2023-03-10T23:31:07.266Z,3.10
2023-03-10T23:33:34.820Z,3.06
2023-03-10T23:36:01.924Z,3.02
2023-03-10T23:38:28.920Z,2.98
2023-03-10T23:40:55.903Z,2.96
2023-03-10T23:43:22.966Z,2.94
2023-03-10T23:45:50.294Z,2.92
2023-03-10T23:48:18.331Z,2.89
2023-03-10T23:50:47.699Z,2.86
2023-03-10T23:53:17.031Z,2.84
2023-03-10T23:55:46.532Z,2.81
2023-03-10T23:58:16.729Z,2.78
